Time;durP1;ratioP1;P1;durP2;ratioP2;P2;SDS_P1;SDS_P2;PMS_P1;PMS_P2;Temp;Humidity;BMP_temperature;BMP_pressure;BME280_temperature;BME280_humidity;BME280_pressure;Samples;Min_cycle;Max_cycle;Signal;HPM_P1;HPM_P2
2022/03/15 00:01:49;;;;;;;;;;;5.90;99.90;;;;;;5031530;28;19913;-54
2022/03/15 00:04:14;;;;;;;;;;;5.90;99.90;;;;;;5036863;28;19919;-56
2022/03/15 00:06:40;;;;;;;;;;;5.90;99.90;;;;;;5029261;28;20297;-54
2022/03/15 00:09:05;;;;;;;;;;;5.90;99.90;;;;;;5038865;28;20359;-55
2022/03/15 00:11:34;;;;;;;;;;;5.90;99.90;;;;;;5034401;28;19912;-54
2022/03/15 00:14:02;;;;;;;;;;;5.90;99.90;;;;;;5033763;28;19945;-53
2022/03/15 00:16:27;;;;;;;;;;;5.80;99.90;;;;;;5036013;28;19911;-54
2022/03/15 00:18:52;;;;;;;;;;;5.80;99.90;;;;;;5039235;28;19909;-55
2022/03/15 00:21:20;;;;;;;;;;;5.80;99.90;;;;;;5033015;28;20089;-56
2022/03/15 00:23:45;;;;;;;;;;;5.80;99.90;;;;;;5031317;28;19905;-56
2022/03/15 00:26:10;;;;;;;;;;;5.80;99.90;;;;;;5035406;28;19919;-54
2022/03/15 00:28:36;;;;;;;;;;;5.70;99.90;;;;;;5037987;28;20342;-54
2022/03/15 00:31:02;;;;;;;;;;;5.80;99.90;;;;;;5037211;28;19981;-55
2022/03/15 00:33:28;;;;;;;;;;;5.70;99.90;;;;;;5039833;28;19912;-55
2022/03/15 00:35:54;;;;;;;;;;;5.70;99.90;;;;;;5039456;28;19905;-54
2022/03/15 00:38:20;;;;;;;;;;;5.70;99.90;;;;;;5038495;28;20281;-54
2022/03/15 00:40:45;;;;;;;;;;;5.60;99.90;;;;;;5039863;28;20259;-54
2022/03/15 00:43:11;;;;;;;;;;;5.60;99.90;;;;;;5037745;28;20263;-52
2022/03/15 00:45:36;;;;;;;;;;;5.60;99.90;;;;;;5036117;28;19967;-56
2022/03/15 00:48:02;;;;;;;;;;;5.60;99.90;;;;;;5038578;28;19999;-55
2022/03/15 00:50:30;;;;;;;;;;;5.50;99.90;;;;;;5037505;28;19905;-55
2022/03/15 00:52:56;;;;;;;;;;;5.50;99.90;;;;;;5034430;28;19986;-55
2022/03/15 00:55:22;;;;;;;;;;;5.40;99.90;;;;;;5035007;28;20373;-52
2022/03/15 00:57:47;;;;;;;;;;;5.40;99.90;;;;;;5034232;28;19962;-56
2022/03/15 01:00:14;;;;;;;;;;;5.40;99.90;;;;;;5033943;28;19916;-57
2022/03/15 01:02:39;;;;;;;;;;;5.40;99.90;;;;;;5035448;28;19971;-54
2022/03/15 01:05:05;;;;;;;;;;;5.40;99.90;;;;;;5038018;28;19963;-55
2022/03/15 01:07:30;;;;;;;;;;;5.40;99.90;;;;;;5037635;28;19913;-51
2022/03/15 01:09:56;;;;;;;;;;;5.40;99.90;;;;;;5036775;28;19909;-54
2022/03/15 01:12:21;;;;;;;;;;;5.40;99.90;;;;;;5036741;28;19960;-54
2022/03/15 01:14:47;;;;;;;;;;;5.40;99.90;;;;;;5033916;28;19916;-54
2022/03/15 01:17:13;;;;;;;;;;;5.30;99.90;;;;;;5031903;28;19913;-56
2022/03/15 01:19:38;;;;;;;;;;;5.30;99.90;;;;;;5041355;28;19909;-55
2022/03/15 01:22:04;;;;;;;;;;;5.30;99.90;;;;;;5038834;28;19913;-54
2022/03/15 01:24:29;;;;;;;;;;;5.30;99.90;;;;;;5034037;28;19913;-52
2022/03/15 01:26:56;;;;;;;;;;;5.30;99.90;;;;;;5037694;28;20292;-55
2022/03/15 01:29:22;;;;;;;;;;;5.20;99.90;;;;;;5035515;28;19917;-54
2022/03/15 01:31:47;;;;;;;;;;;5.20;99.90;;;;;;5033911;28;19905;-56
2022/03/15 01:34:13;;;;;;;;;;;5.10;99.90;;;;;;5036765;28;20031;-56
2022/03/15 01:36:39;;;;;;;;;;;5.10;99.90;;;;;;5035632;28;19999;-56
2022/03/15 01:39:04;;;;;;;;;;;5.10;99.90;;;;;;5033279;28;20362;-55
2022/03/15 01:41:35;;;;;;;;;;;5.10;99.90;;;;;;5030118;28;20358;-56
2022/03/15 01:44:01;;;;;;;;;;;5.10;99.90;;;;;;5035735;28;19908;-54
2022/03/15 01:46:27;;;;;;;;;;;5.00;99.90;;;;;;5035672;28;19909;-54
2022/03/15 01:48:52;;;;;;;;;;;5.00;99.90;;;;;;5033112;28;19919;-53
2022/03/15 01:51:18;;;;;;;;;;;5.10;99.90;;;;;;5035250;28;19913;-51
2022/03/15 01:53:43;;;;;;;;;;;5.00;99.90;;;;;;5033972;28;19909;-51
2022/03/15 01:56:09;;;;;;;;;;;5.00;99.90;;;;;;5035606;28;19909;-53
2022/03/15 01:58:34;;;;;;;;;;;5.00;99.90;;;;;;5030446;28;19905;-55
2022/03/15 02:01:00;;;;;;;;;;;5.00;99.90;;;;;;5033530;28;19915;-54
2022/03/15 02:03:25;;;;;;;;;;;5.00;99.90;;;;;;5030787;28;19913;-56
2022/03/15 02:05:51;;;;;;;;;;;5.00;99.90;;;;;;5035853;28;19991;-56
2022/03/15 02:08:16;;;;;;;;;;;5.00;99.90;;;;;;5037307;28;19975;-56
2022/03/15 02:10:42;;;;;;;;;;;4.90;99.90;;;;;;5034309;28;20011;-51
2022/03/15 02:13:08;;;;;;;;;;;4.90;99.90;;;;;;5036996;28;20002;-53
2022/03/15 02:15:34;;;;;;;;;;;4.80;99.90;;;;;;5034004;28;19916;-53
2022/03/15 02:17:59;;;;;;;;;;;4.90;99.90;;;;;;5034216;28;19909;-52
2022/03/15 02:20:25;;;;;;;;;;;4.90;99.90;;;;;;5036501;28;19913;-53
2022/03/15 02:22:51;;;;;;;;;;;4.90;99.90;;;;;;5037323;28;19916;-55
2022/03/15 02:25:16;;;;;;;;;;;4.80;99.90;;;;;;5033704;28;20328;-56
2022/03/15 02:27:41;;;;;;;;;;;4.80;99.90;;;;;;5036090;28;19913;-53
2022/03/15 02:30:08;;;;;;;;;;;4.80;99.90;;;;;;5039035;28;19913;-55
2022/03/15 02:32:34;;;;;;;;;;;4.80;99.90;;;;;;5035472;28;19912;-55
2022/03/15 02:34:59;;;;;;;;;;;4.80;99.90;;;;;;5037056;28;19912;-56
2022/03/15 02:37:25;;;;;;;;;;;4.70;99.90;;;;;;5030600;28;19909;-53
2022/03/15 02:39:51;;;;;;;;;;;4.70;99.90;;;;;;5034746;28;19948;-55
2022/03/15 02:42:17;;;;;;;;;;;4.60;99.90;;;;;;5034197;28;19962;-51
2022/03/15 02:44:42;;;;;;;;;;;4.60;99.90;;;;;;5037774;28;20324;-56
2022/03/15 02:47:07;;;;;;;;;;;4.60;99.90;;;;;;5035337;28;20383;-56
2022/03/15 02:49:33;;;;;;;;;;;4.60;99.90;;;;;;5038701;28;19968;-51
2022/03/15 02:51:58;;;;;;;;;;;4.60;99.90;;;;;;5033818;28;19909;-56
2022/03/15 02:54:24;;;;;;;;;;;4.60;99.90;;;;;;5035659;28;20353;-54
2022/03/15 02:56:50;;;;;;;;;;;4.60;99.90;;;;;;5036910;28;19940;-51
2022/03/15 02:59:16;;;;;;;;;;;4.60;99.90;;;;;;5033151;28;19905;-54
2022/03/15 03:01:42;;;;;;;;;;;4.60;99.90;;;;;;5029820;28;20408;-52
2022/03/15 03:04:08;;;;;;;;;;;4.60;99.90;;;;;;5029604;28;19905;-51
2022/03/15 03:06:34;;;;;;;;;;;4.60;99.90;;;;;;5031038;28;19957;-49
2022/03/15 03:08:59;;;;;;;;;;;4.60;99.90;;;;;;5030371;28;19971;-54
2022/03/15 03:11:24;;;;;;;;;;;4.60;99.90;;;;;;5027532;28;19920;-54
2022/03/15 03:13:52;;;;;;;;;;;4.50;99.90;;;;;;5030587;28;19909;-52
2022/03/15 03:16:18;;;;;;;;;;;4.50;99.90;;;;;;5031419;28;19909;-53
2022/03/15 03:18:43;;;;;;;;;;;4.50;99.90;;;;;;5035528;28;19909;-55
2022/03/15 03:21:09;;;;;;;;;;;4.50;99.90;;;;;;5035969;28;19913;-51
2022/03/15 03:23:35;;;;;;;;;;;4.50;99.90;;;;;;5033890;28;19913;-50
2022/03/15 03:26:01;;;;;;;;;;;4.50;99.90;;;;;;5036341;28;19909;-54
2022/03/15 03:28:30;;;;;;;;;;;4.50;99.90;;;;;;5032687;28;19920;-56
2022/03/15 03:30:55;;;;;;;;;;;4.50;99.90;;;;;;5029855;28;19928;-53
2022/03/15 03:33:21;;;;;;;;;;;4.50;99.90;;;;;;5032028;28;20297;-53
2022/03/15 03:35:49;;;;;;;;;;;4.50;99.90;;;;;;5029587;28;19917;-54
2022/03/15 03:38:15;;;;;;;;;;;4.50;99.90;;;;;;5030876;28;20007;-56
2022/03/15 03:40:41;;;;;;;;;;;4.50;99.90;;;;;;5028590;28;19999;-54
2022/03/15 03:43:06;;;;;;;;;;;4.50;99.90;;;;;;5029106;28;19958;-55
2022/03/15 03:45:31;;;;;;;;;;;4.50;99.90;;;;;;5030964;28;19985;-51
2022/03/15 03:47:57;;;;;;;;;;;4.50;99.90;;;;;;5037892;28;19913;-54
2022/03/15 03:50:22;;;;;;;;;;;4.50;99.90;;;;;;5031631;28;19913;-56
2022/03/15 03:52:48;;;;;;;;;;;4.50;99.90;;;;;;5031080;28;19909;-54
2022/03/15 03:55:13;;;;;;;;;;;4.50;99.90;;;;;;5031997;28;19995;-54
2022/03/15 03:57:39;;;;;;;;;;;4.50;99.90;;;;;;5036220;28;20000;-55
2022/03/15 04:00:06;;;;;;;;;;;4.50;99.90;;;;;;5030434;28;19932;-55
2022/03/15 04:02:32;;;;;;;;;;;4.50;99.90;;;;;;5037718;28;19909;-54
2022/03/15 04:04:57;;;;;;;;;;;4.50;99.90;;;;;;5035725;28;20369;-51
2022/03/15 04:07:22;;;;;;;;;;;4.60;99.90;;;;;;5034507;28;19992;-55
2022/03/15 04:09:48;;;;;;;;;;;4.60;99.90;;;;;;5036785;28;19924;-56
2022/03/15 04:12:16;;;;;;;;;;;4.60;99.90;;;;;;5032417;28;20316;-55
2022/03/15 04:14:44;;;;;;;;;;;4.60;99.90;;;;;;5034143;28;20477;-56
2022/03/15 04:17:09;;;;;;;;;;;4.50;99.90;;;;;;5029113;28;19936;-56
2022/03/15 04:19:35;;;;;;;;;;;4.50;99.90;;;;;;5034775;28;20370;-56
2022/03/15 04:22:00;;;;;;;;;;;4.50;99.90;;;;;;5034089;28;19920;-56
2022/03/15 04:24:26;;;;;;;;;;;4.50;99.90;;;;;;5039783;28;19913;-54
2022/03/15 04:26:51;;;;;;;;;;;4.50;99.90;;;;;;5033462;28;19913;-55
2022/03/15 04:29:17;;;;;;;;;;;4.40;99.90;;;;;;5036269;28;19924;-53
2022/03/15 04:31:42;;;;;;;;;;;4.40;99.90;;;;;;5035014;28;19919;-56
2022/03/15 04:34:08;;;;;;;;;;;4.40;99.90;;;;;;5035320;28;19913;-55
2022/03/15 04:36:35;;;;;;;;;;;4.40;99.90;;;;;;5033636;28;19909;-53
2022/03/15 04:39:01;;;;;;;;;;;4.30;99.90;;;;;;5035128;28;19908;-51
2022/03/15 04:41:26;;;;;;;;;;;4.20;99.90;;;;;;5037238;28;19920;-53
2022/03/15 04:43:52;;;;;;;;;;;4.30;99.90;;;;;;5036859;28;19909;-55
2022/03/15 04:46:17;;;;;;;;;;;4.30;99.90;;;;;;5034656;28;19931;-53
2022/03/15 04:48:43;;;;;;;;;;;4.30;99.90;;;;;;5034965;28;19913;-54
2022/03/15 04:51:08;;;;;;;;;;;4.30;99.90;;;;;;5028754;28;19948;-53
2022/03/15 04:56:02;;;;;;;;;;;4.40;99.90;;;;;;5030024;28;19921;-51
2022/03/15 04:58:27;;;;;;;;;;;4.40;99.90;;;;;;5032284;28;20385;-53
2022/03/15 05:00:53;;;;;;;;;;;4.40;99.90;;;;;;5030325;28;19923;-51
2022/03/15 05:03:18;;;;;;;;;;;4.40;99.90;;;;;;5033844;28;20066;-52
2022/03/15 05:05:44;;;;;;;;;;;4.40;99.90;;;;;;5032258;28;19916;-50
2022/03/15 05:08:10;;;;;;;;;;;4.50;99.90;;;;;;5032868;28;19917;-50
2022/03/15 05:13:20;;;;;;;;;;;4.50;99.90;;;;;;5030624;28;19916;-49
2022/03/15 05:15:46;;;;;;;;;;;4.50;99.90;;;;;;5034737;28;20033;-50
2022/03/15 05:18:12;;;;;;;;;;;4.50;99.90;;;;;;5034716;28;19992;-51
2022/03/15 05:20:37;;;;;;;;;;;4.60;99.90;;;;;;5029803;28;20293;-50
2022/03/15 05:23:02;;;;;;;;;;;4.50;99.90;;;;;;5034134;28;19956;-48
2022/03/15 05:25:28;;;;;;;;;;;4.50;99.90;;;;;;5031495;28;19935;-49
2022/03/15 05:27:54;;;;;;;;;;;4.50;99.90;;;;;;5031108;28;19913;-53
2022/03/15 05:30:19;;;;;;;;;;;4.50;99.90;;;;;;5033249;28;20081;-51
2022/03/15 05:32:45;;;;;;;;;;;4.50;99.90;;;;;;5037823;28;19913;-49
2022/03/15 05:35:10;;;;;;;;;;;4.40;99.90;;;;;;5032159;28;20361;-51
2022/03/15 05:37:36;;;;;;;;;;;4.40;99.90;;;;;;5031691;28;20406;-51
2022/03/15 05:40:01;;;;;;;;;;;4.50;99.90;;;;;;5035219;28;20357;-51
2022/03/15 05:42:27;;;;;;;;;;;4.50;99.90;;;;;;5031221;28;19913;-48
2022/03/15 05:44:52;;;;;;;;;;;4.50;99.90;;;;;;5040171;28;20293;-51
2022/03/15 05:47:18;;;;;;;;;;;4.50;99.90;;;;;;5035006;28;19916;-51
2022/03/15 05:49:44;;;;;;;;;;;4.60;99.90;;;;;;5031208;28;19917;-49
2022/03/15 05:52:09;;;;;;;;;;;4.50;99.90;;;;;;5031844;28;20338;-50
2022/03/15 05:54:35;;;;;;;;;;;4.50;99.90;;;;;;5031826;28;19924;-52
2022/03/15 05:57:01;;;;;;;;;;;4.50;99.90;;;;;;5031642;28;19909;-50
2022/03/15 05:59:26;;;;;;;;;;;4.60;99.90;;;;;;5033503;28;19917;-51
2022/03/15 06:01:52;;;;;;;;;;;4.60;99.90;;;;;;5031545;28;19909;-51
2022/03/15 06:04:17;;;;;;;;;;;4.60;99.90;;;;;;5039428;28;20078;-51
2022/03/15 06:06:43;;;;;;;;;;;4.70;99.90;;;;;;5031510;28;19920;-50
2022/03/15 06:09:08;;;;;;;;;;;4.80;99.90;;;;;;5033754;28;20361;-50
2022/03/15 06:11:34;;;;;;;;;;;4.80;99.90;;;;;;5031578;28;19916;-51
2022/03/15 06:14:00;;;;;;;;;;;4.90;99.90;;;;;;5032066;28;20274;-50
2022/03/15 06:16:25;;;;;;;;;;;4.80;99.90;;;;;;5031551;28;19909;-50
2022/03/15 06:18:51;;;;;;;;;;;4.90;99.90;;;;;;5028772;28;20366;-51
2022/03/15 06:21:17;;;;;;;;;;;4.90;99.90;;;;;;5033043;28;19925;-51
2022/03/15 06:23:43;;;;;;;;;;;5.00;99.90;;;;;;5033183;28;20305;-51
2022/03/15 06:26:09;;;;;;;;;;;5.00;99.90;;;;;;5030042;28;19920;-50
2022/03/15 06:28:35;;;;;;;;;;;5.10;99.90;;;;;;5029458;28;19920;-50
2022/03/15 06:31:02;;;;;;;;;;;5.10;99.90;;;;;;5035649;28;19916;-50
2022/03/15 06:33:27;;;;;;;;;;;5.20;99.90;;;;;;5039028;28;19909;-53
2022/03/15 06:35:53;;;;;;;;;;;5.30;99.90;;;;;;5032386;28;19936;-51
2022/03/15 06:38:18;;;;;;;;;;;5.40;99.90;;;;;;5031364;28;19940;-50
2022/03/15 06:40:44;;;;;;;;;;;5.40;99.90;;;;;;5027467;28;19967;-50
2022/03/15 06:43:11;;;;;;;;;;;5.50;99.90;;;;;;5029672;28;19908;-51
2022/03/15 06:45:37;;;;;;;;;;;5.60;99.90;;;;;;5032880;28;19918;-54
2022/03/15 06:48:02;;;;;;;;;;;5.60;99.90;;;;;;5032224;28;19924;-49
2022/03/15 06:50:28;;;;;;;;;;;5.70;99.90;;;;;;5028240;28;20402;-51
2022/03/15 06:52:54;;;;;;;;;;;5.70;99.90;;;;;;5034091;28;19967;-53
2022/03/15 06:55:19;;;;;;;;;;;5.80;99.90;;;;;;5028668;28;19996;-54
2022/03/15 06:57:45;;;;;;;;;;;5.90;99.90;;;;;;5030878;28;19963;-49
2022/03/15 07:00:11;;;;;;;;;;;6.00;99.90;;;;;;5029537;28;19905;-51
2022/03/15 07:02:37;;;;;;;;;;;6.00;99.90;;;;;;5028447;28;20376;-49
2022/03/15 07:05:03;;;;;;;;;;;6.10;99.90;;;;;;5031741;28;19999;-53
2022/03/15 07:07:28;;;;;;;;;;;6.10;99.90;;;;;;5028375;28;19916;-52
2022/03/15 07:09:54;;;;;;;;;;;6.20;99.90;;;;;;5036512;28;19913;-50
2022/03/15 07:12:21;;;;;;;;;;;6.30;99.90;;;;;;5034722;28;20496;-48
2022/03/15 07:14:47;;;;;;;;;;;6.40;99.90;;;;;;5033385;28;19944;-49
2022/03/15 07:17:13;;;;;;;;;;;6.50;99.90;;;;;;5030624;28;19913;-47
2022/03/15 07:19:39;;;;;;;;;;;6.60;99.90;;;;;;5033474;28;19913;-49
2022/03/15 07:22:07;;;;;;;;;;;6.70;99.90;;;;;;5029437;28;19913;-48
2022/03/15 07:24:33;;;;;;;;;;;6.70;99.90;;;;;;5025530;28;20448;-49
2022/03/15 07:26:59;;;;;;;;;;;6.80;99.90;;;;;;5034454;28;19909;-46
2022/03/15 07:29:25;;;;;;;;;;;6.90;99.90;;;;;;5033016;28;20396;-46
2022/03/15 07:31:50;;;;;;;;;;;7.00;99.90;;;;;;5033746;28;19999;-51
2022/03/15 07:34:15;;;;;;;;;;;7.10;99.90;;;;;;5035193;28;19909;-47
2022/03/15 07:36:41;;;;;;;;;;;7.20;99.90;;;;;;5029657;28;19923;-50
2022/03/15 07:39:06;;;;;;;;;;;7.30;99.90;;;;;;5031213;28;19913;-51
2022/03/15 07:41:38;;;;;;;;;;;7.30;99.90;;;;;;5033633;28;19924;-50
2022/03/15 07:44:04;;;;;;;;;;;7.40;99.90;;;;;;5029891;28;19909;-47
2022/03/15 07:46:30;;;;;;;;;;;7.50;99.90;;;;;;5029097;28;19909;-50
2022/03/15 07:48:55;;;;;;;;;;;7.60;99.90;;;;;;5032795;28;19932;-48
2022/03/15 07:51:21;;;;;;;;;;;7.60;99.90;;;;;;5032958;28;20370;-47
2022/03/15 07:53:46;;;;;;;;;;;7.70;99.90;;;;;;5040035;28;19916;-50
2022/03/15 07:56:11;;;;;;;;;;;7.80;99.90;;;;;;5034403;28;20317;-47
2022/03/15 07:58:37;;;;;;;;;;;7.90;99.90;;;;;;5033821;28;19913;-49
2022/03/15 08:01:02;;;;;;;;;;;8.00;99.90;;;;;;5032908;28;19920;-47
2022/03/15 08:03:28;;;;;;;;;;;8.00;99.90;;;;;;5035388;28;19909;-49
2022/03/15 08:05:53;;;;;;;;;;;8.20;99.90;;;;;;5035566;28;20354;-49
2022/03/15 08:08:19;;;;;;;;;;;8.30;99.90;;;;;;5032270;28;19999;-48
2022/03/15 08:10:45;;;;;;;;;;;8.40;99.90;;;;;;5032453;28;19913;-50
2022/03/15 08:13:10;;;;;;;;;;;8.40;99.90;;;;;;5029960;28;19988;-49
2022/03/15 08:15:35;;;;;;;;;;;8.50;99.90;;;;;;5029671;28;19944;-48
2022/03/15 08:18:04;;;;;;;;;;;8.50;99.90;;;;;;5029565;28;20366;-48
2022/03/15 08:20:33;;;;;;;;;;;8.60;99.90;;;;;;5028983;28;20302;-52
2022/03/15 08:22:59;;;;;;;;;;;8.70;99.90;;;;;;5033413;28;19912;-49
2022/03/15 08:25:24;;;;;;;;;;;8.70;99.90;;;;;;5031234;28;19992;-47
2022/03/15 08:27:50;;;;;;;;;;;8.80;99.90;;;;;;5028293;28;20373;-48
2022/03/15 08:30:15;;;;;;;;;;;8.90;99.90;;;;;;5027202;28;20900;-47
2022/03/15 08:32:40;;;;;;;;;;;8.80;99.90;;;;;;5030558;28;19913;-48
2022/03/15 08:35:06;;;;;;;;;;;8.80;99.90;;;;;;5029972;28;19967;-48
2022/03/15 08:37:32;;;;;;;;;;;8.90;99.90;;;;;;5027361;28;19912;-49
2022/03/15 08:39:58;;;;;;;;;;;9.00;99.90;;;;;;5030227;28;19909;-50
2022/03/15 08:42:24;;;;;;;;;;;9.10;99.90;;;;;;5033322;28;19908;-47
2022/03/15 08:44:50;;;;;;;;;;;9.30;99.90;;;;;;5028485;28;20431;-49
2022/03/15 08:47:15;;;;;;;;;;;9.40;99.90;;;;;;5032167;28;19991;-47
2022/03/15 08:49:41;;;;;;;;;;;9.50;99.90;;;;;;5032923;28;19995;-49
2022/03/15 08:52:08;;;;;;;;;;;9.50;99.90;;;;;;5031601;28;19924;-51
2022/03/15 08:54:34;;;;;;;;;;;9.60;99.90;;;;;;5030661;28;20283;-49
2022/03/15 08:57:00;;;;;;;;;;;9.70;99.90;;;;;;5030146;28;19920;-48
2022/03/15 08:59:25;;;;;;;;;;;9.70;99.90;;;;;;5030959;28;19909;-49
2022/03/15 09:01:51;;;;;;;;;;;9.80;99.90;;;;;;5032194;28;19913;-52
2022/03/15 09:04:17;;;;;;;;;;;9.80;99.90;;;;;;5033072;28;19912;-52
2022/03/15 09:06:43;;;;;;;;;;;9.90;99.90;;;;;;5031414;28;19963;-49
2022/03/15 09:09:08;;;;;;;;;;;10.10;99.90;;;;;;5032292;28;19967;-50
2022/03/15 09:11:34;;;;;;;;;;;10.10;99.90;;;;;;5030536;28;19970;-51
2022/03/15 09:13:59;;;;;;;;;;;10.30;99.90;;;;;;5033447;28;19912;-53
2022/03/15 09:16:25;;;;;;;;;;;10.30;99.90;;;;;;5030609;28;19963;-50
2022/03/15 09:18:51;;;;;;;;;;;10.40;99.90;;;;;;5031399;28;20385;-48
2022/03/15 09:21:18;;;;;;;;;;;10.40;99.90;;;;;;5032139;28;19917;-51
2022/03/15 09:23:43;;;;;;;;;;;10.50;99.90;;;;;;5038044;28;20330;-50
2022/03/15 09:26:09;;;;;;;;;;;10.50;99.90;;;;;;5031386;28;19906;-52
2022/03/15 09:28:35;;;;;;;;;;;10.40;99.90;;;;;;5041244;28;20282;-49
2022/03/15 09:31:01;;;;;;;;;;;10.40;99.90;;;;;;5030941;28;20275;-49
2022/03/15 09:35:46;;;;;;;35.67;18.07;;;10.40;99.90;;;;;;5067243;27;20349;-54
2022/03/15 09:38:11;;;;;;;29.55;17.25;;;10.50;99.90;;;;;;5100947;28;20027;-50
2022/03/15 09:40:37;;;;;;;;;;;10.60;99.90;;;;;;5098751;28;20089;-53
2022/03/15 09:43:06;;;;;;;28.45;17.85;;;10.70;99.90;;;;;;5097740;28;19918;-51
2022/03/15 09:45:34;;;;;;;33.30;19.98;;;10.80;99.90;;;;;;5100810;28;20063;-53
2022/03/15 09:48:03;;;;;;;30.00;18.50;;;10.80;99.90;;;;;;5097989;28;20028;-52
2022/03/15 09:50:29;;;;;;;35.92;20.30;;;10.90;99.90;;;;;;5099118;28;20060;-49
2022/03/15 09:52:57;;;;;;;28.08;17.15;;;11.00;99.90;;;;;;5099705;28;20476;-54
2022/03/15 09:55:24;;;;;;;32.08;18.23;;;11.10;99.90;;;;;;5098623;28;20492;-50
2022/03/15 09:57:51;;;;;;;31.58;19.90;;;11.20;99.90;;;;;;5097514;28;20020;-52
2022/03/15 10:00:17;;;;;;;36.13;18.95;;;11.30;99.90;;;;;;5093586;28;20031;-54
2022/03/15 10:02:43;;;;;;;;;;;11.30;99.90;;;;;;5094469;28;20028;-54
2022/03/15 10:05:10;;;;;;;32.45;19.83;;;11.40;99.90;;;;;;5095088;28;20318;-53
2022/03/15 10:07:36;;;;;;;33.33;19.45;;;11.50;99.90;;;;;;5095017;28;20036;-50
2022/03/15 10:10:05;;;;;;;34.17;18.95;;;11.60;99.90;;;;;;5101417;28;20069;-50
2022/03/15 10:12:30;;;;;;;31.17;20.13;;;11.60;99.90;;;;;;5097827;28;20024;-53
2022/03/15 10:14:56;;;;;;;;;;;11.70;99.90;;;;;;5092972;28;20070;-51
2022/03/15 10:17:22;;;;;;;27.85;17.00;;;11.80;99.90;;;;;;5096662;28;19920;-49
2022/03/15 10:19:51;;;;;;;;;;;11.90;99.90;;;;;;5099623;28;20388;-53
2022/03/15 10:22:21;;;;;;;35.15;19.52;;;12.00;99.90;;;;;;5096473;28;19914;-50
2022/03/15 10:24:46;;;;;;;32.70;19.73;;;12.00;99.90;;;;;;5098128;28;20035;-54
2022/03/15 10:27:12;;;;;;;;;;;12.10;99.90;;;;;;5099992;28;20023;-53
2022/03/15 10:29:39;;;;;;;26.15;17.58;;;12.20;99.90;;;;;;5095892;28;19955;-51
2022/03/15 10:32:04;;;;;;;28.58;19.10;;;12.30;99.80;;;;;;5092905;28;20472;-54
2022/03/15 10:34:30;;;;;;;;;;;12.30;99.50;;;;;;5095261;28;20034;-53
2022/03/15 10:36:56;;;;;;;33.88;19.85;;;12.40;99.50;;;;;;5101549;28;19918;-50
2022/03/15 10:39:24;;;;;;;43.35;19.75;;;12.50;99.50;;;;;;5099782;28;20579;-51
2022/03/15 10:41:59;;;;;;;29.85;17.45;;;12.50;99.20;;;;;;5097511;28;20393;-52
2022/03/15 10:44:31;;;;;;;29.95;17.23;;;12.50;99.20;;;;;;5093981;28;20112;-53
2022/03/15 10:47:21;;;;;;;30.38;19.05;;;12.60;99.30;;;;;;5085108;28;20039;-52
2022/03/15 10:49:52;;;;;;;30.80;16.98;;;12.60;99.00;;;;;;5070697;28;20049;-49
2022/03/15 10:52:33;;;;;;;28.27;17.38;;;12.70;98.90;;;;;;5067439;28;20497;-50
2022/03/15 10:55:18;;;;;;;29.45;18.58;;;12.70;99.10;;;;;;5056641;22;20044;-55
2022/03/15 10:57:45;;;;;;;27.92;18.45;;;12.80;98.60;;;;;;5007357;28;20037;-55
2022/03/15 11:00:12;;;;;;;30.63;18.67;;;12.80;98.90;;;;;;5008109;28;20025;-53
2022/03/15 11:02:44;;;;;;;26.83;18.08;;;12.90;98.70;;;;;;5008584;28;20049;-56
2022/03/15 11:05:10;;;;;;;28.75;19.48;;;13.00;98.50;;;;;;5005370;28;20053;-51
2022/03/15 11:07:37;;;;;;;;;;;13.00;98.30;;;;;;5008418;28;20071;-51
2022/03/15 11:10:14;;;;;;;32.40;17.75;;;12.90;98.40;;;;;;5007180;28;19916;-56
2022/03/15 11:12:59;;;;;;;36.55;19.02;;;12.90;98.50;;;;;;5005566;28;20037;-54
2022/03/15 11:15:30;;;;;;;29.15;18.45;;;12.90;98.60;;;;;;5005741;28;20038;-55
2022/03/15 11:18:05;;;;;;;30.33;20.10;;;12.90;98.70;;;;;;5006657;28;20029;-57
2022/03/15 11:20:36;;;;;;;36.17;20.15;;;13.00;98.80;;;;;;5006543;28;20022;-54
2022/03/15 11:23:03;;;;;;;37.63;19.60;;;13.20;98.70;;;;;;5006334;28;20361;-56
2022/03/15 11:25:35;;;;;;;35.28;20.02;;;13.30;98.60;;;;;;5006500;28;20499;-55
2022/03/15 11:28:03;;;;;;;28.33;16.95;;;13.40;98.80;;;;;;5007559;28;20079;-53
2022/03/15 11:30:29;;;;;;;26.83;15.77;;;13.40;97.90;;;;;;4988663;28;20091;-54
2022/03/15 11:32:55;;;;;;;33.33;18.42;;;13.30;97.40;;;;;;5006638;28;20030;-56
2022/03/15 11:35:23;;;;;;;29.10;18.58;;;13.20;97.40;;;;;;5005567;28;20080;-56
2022/03/15 11:37:51;;;;;;;24.90;16.38;;;13.10;97.60;;;;;;5008658;28;20029;-55
2022/03/15 11:40:18;;;;;;;28.40;17.60;;;13.00;97.50;;;;;;5006952;28;20422;-50
2022/03/15 11:42:50;;;;;;;28.55;17.33;;;13.00;97.40;;;;;;5006540;28;20096;-53
2022/03/15 11:45:31;;;;;;;23.77;15.63;;;13.00;97.70;;;;;;5004718;28;20040;-57
2022/03/15 11:48:18;;;;;;;29.23;16.35;;;13.10;97.10;;;;;;5006636;28;20030;-55
2022/03/15 11:51:17;;;;;;;28.38;16.13;;;13.10;97.30;;;;;;5006682;28;20037;-52
2022/03/15 11:54:06;;;;;;;33.13;18.80;;;13.10;97.40;;;;;;5002806;28;20047;-56
2022/03/15 11:56:41;;;;;;;29.48;16.27;;;13.10;97.60;;;;;;5006109;28;20042;-56
2022/03/15 11:59:06;;;;;;;26.55;17.40;;;13.20;97.50;;;;;;5003920;28;20131;-55
2022/03/15 12:01:41;;;;;;;;;;;13.20;97.50;;;;;;5008109;28;20552;-55
2022/03/15 12:04:10;;;;;;;22.90;15.15;;;13.30;97.60;;;;;;5006012;28;20067;-57
2022/03/15 12:06:36;;;;;;;24.45;15.40;;;13.30;97.50;;;;;;5006842;28;20042;-55
2022/03/15 12:09:10;;;;;;;;;;;13.30;97.60;;;;;;5006791;28;20034;-54
2022/03/15 12:11:39;;;;;;;24.40;16.58;;;13.30;97.00;;;;;;5005598;28;19929;-56
2022/03/15 12:14:11;;;;;;;22.08;15.30;;;13.30;97.00;;;;;;5005490;28;20056;-55
2022/03/15 12:16:42;;;;;;;24.65;15.32;;;13.30;96.70;;;;;;5005471;28;20117;-57
2022/03/15 12:19:15;;;;;;;28.45;15.45;;;13.20;96.90;;;;;;5007341;28;20041;-53
2022/03/15 12:21:53;;;;;;;24.73;17.23;;;13.20;97.20;;;;;;5004839;28;20049;-53
2022/03/15 12:24:36;;;;;;;24.30;14.15;;;13.30;97.10;;;;;;5004156;28;20499;-54
2022/03/15 12:27:04;;;;;;;24.05;15.05;;;13.40;97.00;;;;;;5005348;28;20026;-55
2022/03/15 12:29:31;;;;;;;42.67;26.63;;;13.50;97.10;;;;;;5006993;28;20133;-56
2022/03/15 12:31:58;;;;;;;41.75;25.25;;;13.50;96.50;;;;;;5002221;28;20034;-56
2022/03/15 12:34:26;;;;;;;30.75;18.35;;;13.40;96.40;;;;;;5005337;28;20095;-54
2022/03/15 12:36:58;;;;;;;37.17;23.27;;;13.30;96.60;;;;;;5006127;28;20493;-52
2022/03/15 12:39:29;;;;;;;24.55;15.23;;;13.30;96.50;;;;;;5005369;28;20261;-55
2022/03/15 12:42:22;;;;;;;22.23;13.73;;;13.30;96.40;;;;;;5003810;28;20053;-55
2022/03/15 12:44:58;;;;;;;24.30;13.85;;;13.20;95.80;;;;;;5000577;28;20096;-55
2022/03/15 12:47:30;;;;;;;22.63;14.13;;;13.20;96.10;;;;;;5003011;28;20029;-55
2022/03/15 12:50:05;;;;;;;22.15;14.65;;;13.20;95.90;;;;;;5003817;28;20049;-57
2022/03/15 12:52:43;;;;;;;25.58;14.05;;;13.20;96.40;;;;;;5001931;28;20037;-51
2022/03/15 12:55:21;;;;;;;30.30;15.52;;;13.30;96.30;;;;;;5003440;28;20045;-57
2022/03/15 12:57:49;;;;;;;19.67;13.25;;;13.20;96.10;;;;;;5006125;28;20022;-55
2022/03/15 13:00:18;;;;;;;22.92;14.23;;;13.10;96.20;;;;;;5005568;28;20363;-57
2022/03/15 13:02:44;;;;;;;23.05;13.70;;;13.10;96.40;;;;;;5003231;28;20034;-55
2022/03/15 13:05:15;;;;;;;21.15;14.30;;;13.10;97.00;;;;;;5003771;28;20487;-56
2022/03/15 13:07:41;;;;;;;20.92;13.63;;;13.20;96.70;;;;;;5003959;28;20034;-56
2022/03/15 13:10:12;;;;;;;22.90;14.48;;;13.10;96.70;;;;;;5003596;28;20030;-55
2022/03/15 13:12:40;;;;;;;21.90;13.63;;;13.10;96.70;;;;;;5004624;28;20037;-56
2022/03/15 13:15:06;;;;;;;24.65;14.32;;;13.10;97.00;;;;;;5003158;28;20049;-57
2022/03/15 13:17:32;;;;;;;22.98;14.57;;;13.00;97.10;;;;;;5005119;28;20022;-54
2022/03/15 13:19:58;;;;;;;;;;;13.00;97.10;;;;;;5002754;28;20354;-54
2022/03/15 13:22:29;;;;;;;24.73;12.70;;;13.00;97.30;;;;;;5003462;28;20339;-55
2022/03/15 13:24:56;;;;;;;19.63;13.68;;;13.00;97.30;;;;;;5005314;28;20037;-56
2022/03/15 13:27:22;;;;;;;23.67;14.75;;;13.10;97.20;;;;;;5004801;28;20072;-54
2022/03/15 13:29:47;;;;;;;;;;;13.00;97.00;;;;;;5006758;28;20048;-55
2022/03/15 13:32:23;;;;;;;26.40;13.57;;;13.00;97.20;;;;;;4999672;28;19917;-54
2022/03/15 13:34:58;;;;;;;21.00;13.65;;;12.90;97.50;;;;;;5006085;28;20537;-58
2022/03/15 13:37:23;;;;;;;21.98;14.32;;;12.90;97.40;;;;;;5007042;28;20475;-53
2022/03/15 13:39:50;;;;;;;;;;;12.90;97.30;;;;;;5007333;28;20109;-54
2022/03/15 13:42:16;;;;;;;30.53;18.23;;;12.90;97.30;;;;;;5006645;28;19913;-57
2022/03/15 13:44:57;;;;;;;28.90;19.77;;;12.90;97.60;;;;;;5005989;28;20395;-54
2022/03/15 13:47:25;;;;;;;27.35;16.90;;;12.80;97.70;;;;;;5006131;28;20045;-56
2022/03/15 13:49:57;;;;;;;22.83;14.30;;;12.90;98.00;;;;;;5007728;28;20038;-57
2022/03/15 13:52:23;;;;;;;24.95;15.68;;;12.80;98.00;;;;;;5000862;28;20037;-57
2022/03/15 13:54:59;;;;;;;;;;;12.80;98.10;;;;;;5005172;28;20085;-57
2022/03/15 13:57:31;;;;;;;19.92;13.13;;;12.70;98.20;;;;;;5004761;28;20334;-57
2022/03/15 14:00:13;;;;;;;23.73;15.15;;;12.60;98.20;;;;;;5004503;28;20026;-57